createdAt,value
2023-01-02T00:00:29.635Z,3.00
2023-01-02T00:03:32.890Z,2.93
2023-01-02T00:06:35.768Z,3.17
2023-01-02T00:09:38.359Z,3.27
2023-01-02T00:12:42.296Z,3.07
2023-01-02T00:15:44.931Z,3.00
2023-01-02T00:18:47.595Z,3.27
2023-01-02T00:21:50.205Z,3.33
2023-01-02T00:24:52.824Z,2.50
2023-01-02T00:27:57.568Z,3.10
2023-01-02T00:31:00.291Z,3.23
2023-01-02T00:34:02.881Z,2.93
2023-01-02T00:37:05.491Z,2.97
2023-01-02T00:40:13.569Z,3.43
2023-01-02T00:43:17.618Z,3.53
2023-01-02T00:46:20.380Z,3.20
2023-01-02T00:49:22.968Z,3.30
2023-01-02T00:52:25.564Z,3.30
2023-01-02T00:55:28.182Z,3.17
2023-01-02T00:58:32.166Z,3.30
2023-01-02T01:01:34.997Z,3.50
2023-01-02T01:04:37.943Z,3.33
2023-01-02T01:07:40.530Z,3.13
2023-01-02T01:10:43.182Z,3.53
2023-01-02T01:13:47.925Z,3.83
2023-01-02T01:16:50.677Z,3.37
2023-01-02T01:19:53.231Z,3.50
2023-01-02T01:22:55.810Z,4.37
2023-01-02T01:25:58.391Z,3.70
2023-01-02T01:29:02.825Z,3.87
2023-01-02T01:32:06.012Z,3.97
2023-01-02T01:35:08.958Z,4.00
2023-01-02T01:38:11.557Z,3.70
2023-01-02T01:41:15.860Z,3.67
2023-01-02T01:44:43.658Z,3.70
2023-01-02T01:47:50.718Z,4.10
2023-01-02T01:50:53.483Z,4.10
2023-01-02T01:54:04.895Z,3.70
2023-01-02T01:57:13.896Z,4.17
2023-01-02T02:00:18.441Z,4.40
2023-01-02T02:03:25.593Z,4.53
2023-01-02T02:06:28.307Z,3.80
2023-01-02T02:09:36.500Z,3.83
2023-01-02T02:12:39.176Z,4.13
2023-01-02T02:15:51.648Z,4.17
2023-01-02T02:19:08.024Z,4.30
2023-01-02T02:22:30.140Z,4.20
2023-01-02T02:26:10.056Z,4.30
2023-01-02T02:30:04.190Z,4.90
2023-01-02T02:33:32.850Z,4.30
2023-01-02T02:36:40.293Z,4.43
2023-01-02T02:39:55.624Z,5.27
2023-01-02T02:43:08.817Z,4.47
2023-01-02T02:46:17.677Z,4.33
2023-01-02T02:49:32.429Z,4.50
2023-01-02T02:52:41.301Z,4.20
2023-01-02T02:55:47.998Z,3.70
2023-01-02T02:58:50.956Z,4.07
2023-01-02T03:01:55.106Z,4.20
2023-01-02T03:05:00.975Z,4.07
2023-01-02T03:08:10.775Z,4.57
2023-01-02T03:11:14.569Z,3.90
2023-01-02T03:14:24.939Z,4.40
2023-01-02T03:17:36.985Z,4.00
2023-01-02T03:20:44.238Z,4.20
2023-01-02T03:23:49.401Z,4.23
2023-01-02T03:26:56.427Z,4.10
2023-01-02T03:30:03.919Z,4.40
2023-01-02T03:33:13.460Z,4.07
2023-01-02T03:36:21.307Z,3.60
2023-01-02T03:39:29.796Z,4.13
2023-01-02T03:42:36.338Z,4.27
2023-01-02T03:45:44.348Z,4.13
2023-01-02T03:48:54.201Z,4.07
2023-01-02T03:51:56.837Z,4.03
2023-01-02T03:55:01.991Z,4.10
2023-01-02T03:58:12.853Z,3.60
2023-01-02T04:01:22.889Z,3.43
2023-01-02T04:04:37.706Z,4.07
2023-01-02T04:07:51.261Z,4.07
2023-01-02T04:10:58.524Z,3.50
2023-01-02T04:14:06.545Z,3.97
2023-01-02T04:17:10.233Z,3.63
2023-01-02T04:20:18.677Z,3.80
2023-01-02T04:23:25.356Z,3.70
2023-01-02T04:26:32.792Z,3.67
2023-01-02T04:29:35.539Z,3.50
2023-01-02T04:32:42.019Z,3.97
2023-01-02T04:35:46.039Z,3.93
2023-01-02T04:38:48.668Z,3.90
2023-01-02T04:41:51.315Z,3.87
2023-01-02T04:44:53.931Z,3.70
2023-01-02T04:47:56.506Z,3.90
2023-01-02T04:51:00.441Z,3.60
2023-01-02T04:54:03.033Z,4.27
2023-01-02T04:57:05.664Z,3.30
2023-01-02T05:00:09.932Z,3.13
2023-01-02T05:03:12.593Z,4.63
2023-01-02T05:06:17.217Z,3.70
2023-01-02T05:09:19.812Z,3.63
2023-01-02T05:12:22.452Z,3.47
2023-01-02T05:15:25.025Z,3.70
2023-01-02T05:18:28.851Z,3.73
2023-01-02T05:21:50.169Z,4.00
2023-01-02T05:24:52.750Z,3.80
2023-01-02T05:27:55.816Z,4.07
2023-01-02T05:31:00.614Z,3.47
2023-01-02T05:34:03.349Z,3.80
2023-01-02T05:37:07.321Z,3.90
2023-01-02T05:40:11.107Z,4.23
2023-01-02T05:43:13.764Z,4.10
2023-01-02T05:46:18.448Z,3.90
2023-01-02T05:49:21.073Z,4.80
2023-01-02T05:52:25.056Z,4.30
2023-01-02T05:55:27.645Z,4.57
2023-01-02T05:58:31.724Z,4.30
2023-01-02T06:01:34.464Z,4.03
2023-01-02T06:04:37.104Z,4.73
2023-01-02T06:07:41.028Z,3.73
2023-01-02T06:10:50.646Z,3.77
2023-01-02T06:13:53.842Z,4.43
2023-01-02T06:16:56.442Z,4.10
2023-01-02T06:19:59.050Z,5.03
2023-01-02T06:23:02.956Z,5.20
2023-01-02T06:26:07.942Z,3.73
2023-01-02T06:29:10.860Z,4.90
2023-01-02T06:32:13.441Z,4.10
2023-01-02T06:35:16.059Z,4.37
2023-01-02T06:38:19.998Z,4.70
2023-01-02T06:41:22.589Z,4.70
2023-01-02T06:44:25.170Z,3.87
2023-01-02T06:47:27.750Z,4.83
2023-01-02T06:50:34.994Z,4.40
2023-01-02T06:53:41.004Z,4.47
2023-01-02T06:56:43.639Z,4.57
2023-01-02T06:59:46.227Z,4.27
2023-01-02T07:02:48.886Z,4.40
2023-01-02T07:05:51.535Z,4.63
2023-01-02T07:08:55.524Z,4.50
2023-01-02T07:11:59.208Z,4.80
2023-01-02T07:15:01.810Z,4.40
2023-01-02T07:18:04.632Z,4.43
2023-01-02T07:21:08.545Z,4.30
2023-01-02T07:24:15.351Z,4.67
2023-01-02T07:27:18.045Z,4.43
2023-01-02T07:30:20.647Z,4.77
2023-01-02T07:33:23.233Z,4.57
2023-01-02T07:36:26.559Z,4.20
2023-01-02T07:39:30.501Z,4.00
2023-01-02T07:42:33.077Z,4.40
2023-01-02T07:45:35.729Z,5.40
2023-01-02T07:48:38.330Z,4.40
2023-01-02T07:51:40.959Z,4.27
2023-01-02T07:54:44.875Z,3.93
2023-01-02T07:57:48.153Z,4.53
2023-01-02T08:00:50.954Z,4.00
2023-01-02T08:03:53.599Z,4.13
2023-01-02T08:06:56.218Z,4.30
2023-01-02T08:10:00.220Z,3.87
2023-01-02T08:13:02.853Z,4.07
2023-01-02T08:16:06.833Z,4.03
2023-01-02T08:19:09.403Z,4.37
2023-01-02T08:22:12.002Z,4.20
2023-01-02T08:25:16.278Z,4.57
2023-01-02T08:28:18.982Z,4.37
2023-01-02T08:31:22.738Z,4.77
2023-01-02T08:34:25.380Z,4.70
2023-01-02T08:37:27.956Z,4.23
2023-01-02T08:40:31.905Z,4.00
2023-01-02T08:43:35.963Z,3.57
2023-01-02T08:46:42.693Z,3.83
2023-01-02T08:49:45.779Z,4.17
2023-01-02T08:52:48.383Z,3.70
2023-01-02T08:55:52.347Z,3.80
2023-01-02T08:58:56.927Z,3.83
2023-01-02T09:01:59.598Z,3.80
2023-01-02T09:05:02.335Z,3.77
2023-01-02T09:08:05.341Z,3.73
2023-01-02T09:11:14.110Z,3.80
2023-01-02T09:14:17.759Z,3.27
2023-01-02T09:17:20.412Z,3.27
2023-01-02T09:20:23.008Z,3.23
2023-01-02T09:23:25.621Z,3.33
2023-01-02T09:26:29.565Z,3.87
2023-01-02T09:29:32.154Z,3.27
2023-01-02T09:32:34.738Z,3.30
2023-01-02T09:35:37.319Z,3.37
2023-01-02T09:38:40.245Z,3.67
2023-01-02T09:41:48.215Z,3.03
2023-01-02T09:44:55.192Z,3.33
2023-01-02T09:48:00.692Z,3.30
2023-01-02T09:51:07.801Z,3.57
2023-01-02T09:54:17.945Z,3.23
2023-01-02T09:57:32.534Z,3.67
2023-01-02T10:00:38.674Z,3.13
2023-01-02T10:03:48.508Z,3.03
2023-01-02T10:07:01.221Z,3.10
2023-01-02T10:10:09.176Z,3.37
2023-01-02T10:13:59.800Z,3.07
2023-01-02T10:16:55.878Z,3.97
2023-01-02T10:20:03.415Z,3.17
2023-01-02T10:23:11.042Z,3.27
2023-01-02T10:26:18.147Z,3.33
2023-01-02T10:29:29.249Z,3.30
2023-01-02T10:32:33.512Z,3.00
2023-01-02T10:35:39.927Z,3.23
2023-01-02T10:38:42.666Z,2.83
2023-01-02T10:41:50.094Z,2.97
2023-01-02T10:44:54.132Z,2.80
2023-01-02T10:47:56.721Z,3.13
2023-01-02T10:51:03.261Z,2.90
2023-01-02T10:54:07.761Z,3.00
2023-01-02T10:57:14.383Z,3.30
2023-01-02T11:00:29.254Z,2.90
2023-01-02T11:03:32.758Z,2.93
2023-01-02T11:06:49.888Z,3.17
2023-01-02T11:09:56.658Z,2.73
2023-01-02T11:13:03.868Z,2.90
2023-01-02T11:16:08.666Z,2.80
2023-01-02T11:19:20.523Z,2.67
2023-01-02T11:22:36.200Z,2.43
2023-01-02T11:25:41.932Z,2.53
2023-01-02T11:28:44.567Z,2.17
2023-01-02T11:31:57.262Z,2.80
2023-01-02T11:35:02.225Z,2.70
2023-01-02T11:38:05.229Z,2.53
2023-01-02T11:41:24.912Z,2.33
2023-01-02T11:44:36.772Z,2.70
2023-01-02T11:47:45.077Z,2.47
2023-01-02T11:50:48.132Z,3.17
2023-01-02T11:53:54.769Z,2.93
2023-01-02T11:57:00.516Z,2.50
2023-01-02T12:00:05.637Z,2.10
2023-01-02T12:03:18.868Z,1.70
2023-01-02T12:06:23.523Z,1.30
2023-01-02T12:09:33.686Z,0.70
2023-01-02T12:12:50.456Z,0.70
2023-01-02T12:16:07.812Z,0.80
2023-01-02T12:19:33.960Z,0.90
2023-01-02T12:22:56.819Z,1.00
2023-01-02T12:26:09.679Z,1.00
2023-01-02T12:29:47.197Z,1.00
2023-01-02T12:33:06.372Z,1.00
2023-01-02T12:36:35.303Z,0.97
2023-01-02T12:40:11.633Z,1.20
2023-01-02T12:43:36.408Z,1.00
2023-01-02T12:46:55.097Z,1.30
2023-01-02T12:50:24.991Z,1.30
2023-01-02T12:53:47.371Z,1.10
2023-01-02T12:57:22.034Z,1.07
2023-01-02T13:00:51.182Z,0.93
2023-01-02T13:04:06.799Z,1.07
2023-01-02T13:07:14.705Z,1.23
2023-01-02T13:10:21.343Z,1.50
2023-01-02T13:13:28.365Z,1.30
2023-01-02T13:16:31.640Z,0.90
2023-01-02T13:19:40.950Z,1.00
2023-01-02T13:22:55.235Z,1.13
2023-01-02T13:26:03.127Z,1.00
2023-01-02T13:29:22.195Z,1.00
2023-01-02T13:32:29.391Z,0.77
2023-01-02T13:35:36.344Z,0.80
2023-01-02T13:38:39.547Z,0.80
2023-01-02T13:42:09.062Z,0.87
2023-01-02T13:45:16.943Z,0.90
2023-01-02T13:48:23.739Z,1.00
2023-01-02T13:51:29.828Z,1.10
2023-01-02T13:54:38.477Z,0.97
2023-01-02T13:57:42.456Z,1.10
2023-01-02T14:00:53.452Z,1.20
2023-01-02T14:04:27.979Z,1.10
2023-01-02T14:07:47.644Z,1.20
2023-01-02T14:10:51.374Z,1.40
2023-01-02T14:13:56.649Z,1.20
2023-01-02T14:17:11.441Z,1.00
2023-01-02T14:20:23.257Z,1.17
2023-01-02T14:23:29.552Z,1.10
2023-01-02T14:26:35.641Z,1.00
2023-01-02T14:29:52.793Z,1.20
2023-01-02T14:32:58.094Z,1.07
2023-01-02T14:36:07.134Z,1.10
2023-01-02T14:39:18.347Z,0.87
2023-01-02T14:42:43.397Z,0.90
2023-01-02T14:45:51.204Z,1.00
2023-01-02T14:48:58.216Z,1.00
2023-01-02T14:52:06.172Z,0.93
2023-01-02T14:55:15.867Z,1.10
2023-01-02T14:58:29.351Z,1.20
2023-01-02T15:01:42.611Z,1.20
2023-01-02T15:04:51.677Z,1.17
2023-01-02T15:07:56.855Z,1.10
2023-01-02T15:11:23.095Z,1.23
2023-01-02T15:14:25.698Z,1.00
2023-01-02T15:17:29.685Z,1.20
2023-01-02T15:20:34.240Z,1.20
2023-01-02T15:23:38.947Z,1.17
2023-01-02T15:26:44.640Z,1.10
2023-01-02T15:29:48.262Z,1.07
2023-01-02T15:32:52.176Z,0.90
2023-01-02T15:35:57.342Z,1.10
2023-01-02T15:39:12.628Z,1.10
2023-01-02T15:42:36.624Z,1.10
2023-01-02T15:45:44.392Z,1.17
2023-01-02T15:48:49.910Z,0.93
2023-01-02T15:51:54.939Z,1.30
2023-01-02T15:54:57.977Z,1.30
2023-01-02T15:58:00.625Z,0.97
2023-01-02T16:01:14.599Z,1.10
2023-01-02T16:04:27.244Z,0.93
2023-01-02T16:07:29.899Z,1.15
2023-01-02T16:10:32.637Z,1.20
2023-01-02T16:13:59.834Z,1.07
2023-01-02T16:17:05.326Z,1.03
2023-01-02T16:20:18.367Z,1.10
2023-01-02T16:23:22.633Z,1.20
2023-01-02T16:26:31.331Z,1.40
2023-01-02T16:29:33.909Z,1.47
2023-01-02T16:32:36.575Z,1.20
2023-01-02T16:35:40.518Z,1.43
2023-01-02T16:38:48.953Z,1.60
2023-01-02T16:42:16.051Z,1.50
2023-01-02T16:45:19.585Z,1.73
2023-01-02T16:48:25.194Z,1.50
2023-01-02T16:51:29.126Z,2.13
2023-01-02T16:54:31.745Z,1.47
2023-01-02T16:57:34.325Z,1.60
2023-01-02T17:00:43.247Z,1.53
2023-01-02T17:03:46.373Z,1.40
2023-01-02T17:06:50.382Z,1.77
2023-01-02T17:09:52.958Z,2.07
2023-01-02T17:12:55.589Z,1.60
2023-01-02T17:15:59.175Z,1.30
2023-01-02T17:19:01.796Z,1.30
2023-01-02T17:22:06.003Z,1.63
2023-01-02T17:25:12.752Z,1.37
2023-01-02T17:28:15.671Z,1.47
2023-01-02T17:31:22.643Z,1.43
2023-01-02T17:34:28.240Z,1.60
2023-01-02T17:37:32.422Z,1.40
2023-01-02T17:40:35.591Z,1.47
2023-01-02T17:43:38.219Z,1.87
2023-01-02T17:47:30.807Z,1.70
2023-01-02T17:50:23.928Z,1.70
2023-01-02T17:53:27.902Z,1.73
2023-01-02T17:56:30.760Z,1.90
2023-01-02T17:59:33.578Z,1.50
2023-01-02T18:02:36.285Z,1.70
2023-01-02T18:05:39.005Z,1.70
2023-01-02T18:08:43.728Z,1.90
2023-01-02T18:11:46.387Z,2.00
2023-01-02T18:14:49.027Z,2.03
2023-01-02T18:17:53.448Z,1.70
2023-01-02T18:20:56.035Z,2.37
2023-01-02T18:24:02.783Z,2.40
2023-01-02T18:27:15.920Z,2.17
2023-01-02T18:30:21.732Z,2.67
2023-01-02T18:33:26.286Z,2.20
2023-01-02T18:36:31.573Z,2.63
2023-01-02T18:39:42.514Z,2.77
2023-01-02T18:42:47.484Z,2.57
2023-01-02T18:45:54.339Z,2.90
2023-01-02T18:48:56.954Z,2.93
2023-01-02T18:52:13.711Z,3.07
2023-01-02T18:55:25.607Z,3.13
2023-01-02T18:58:38.128Z,3.50
2023-01-02T19:01:44.813Z,3.67
2023-01-02T19:04:47.449Z,4.17
2023-01-02T19:07:50.122Z,3.87
2023-01-02T19:10:56.143Z,3.50
2023-01-02T19:13:59.129Z,4.53
2023-01-02T19:17:05.720Z,3.70
2023-01-02T19:20:12.032Z,4.17
2023-01-02T19:23:28.118Z,4.43
2023-01-02T19:26:34.426Z,5.70
2023-01-02T19:29:38.351Z,6.27
2023-01-02T19:32:40.969Z,5.00
2023-01-02T19:35:57.957Z,3.67
2023-01-02T19:39:01.376Z,3.87
2023-01-02T19:42:20.195Z,3.70
2023-01-02T19:45:24.379Z,3.60
2023-01-02T19:48:26.974Z,3.40
2023-01-02T19:51:32.068Z,3.00
2023-01-02T19:54:34.785Z,2.97
2023-01-02T19:57:39.002Z,2.93
2023-01-02T20:00:41.574Z,3.27
2023-01-02T20:03:44.160Z,2.50
2023-01-02T20:06:46.731Z,3.10
2023-01-02T20:09:49.676Z,3.80
2023-01-02T20:12:53.772Z,3.43
2023-01-02T20:15:56.415Z,3.80
2023-01-02T20:18:59.043Z,3.60
2023-01-02T20:22:02.298Z,3.47
2023-01-02T20:25:05.922Z,3.20
2023-01-02T20:28:09.850Z,3.63
2023-01-02T20:31:12.525Z,3.47
2023-01-02T20:34:15.412Z,3.50
2023-01-02T20:37:21.138Z,3.43
2023-01-02T20:40:23.807Z,4.00
2023-01-02T20:43:27.744Z,4.13
2023-01-02T20:46:30.376Z,4.90
2023-01-02T20:49:32.999Z,3.97
2023-01-02T20:52:35.568Z,3.67
2023-01-02T20:55:39.208Z,3.57
2023-01-02T20:58:43.265Z,3.37
2023-01-02T21:01:46.027Z,3.80
2023-01-02T21:04:48.719Z,3.73
2023-01-02T21:07:51.396Z,3.17
2023-01-02T21:10:53.989Z,3.77
2023-01-02T21:13:58.825Z,3.93
2023-01-02T21:17:01.400Z,3.47
2023-01-02T21:20:03.996Z,3.73
2023-01-02T21:23:06.970Z,3.97
2023-01-02T21:26:12.122Z,3.70
2023-01-02T21:29:16.064Z,3.03
2023-01-02T21:32:18.630Z,4.00
2023-01-02T21:35:21.234Z,3.70
2023-01-02T21:38:24.839Z,3.70
2023-01-02T21:41:44.958Z,3.50
2023-01-02T21:44:49.024Z,3.37
2023-01-02T21:47:51.656Z,3.30
2023-01-02T21:50:54.277Z,3.57
2023-01-02T21:53:56.832Z,3.53
2023-01-02T21:56:59.583Z,3.40
2023-01-02T22:00:04.075Z,3.07
2023-01-02T22:03:06.753Z,3.10
2023-01-02T22:06:09.613Z,3.60
2023-01-02T22:09:12.298Z,3.03
2023-01-02T22:12:15.419Z,3.60
2023-01-02T22:15:19.416Z,3.50
2023-01-02T22:18:22.128Z,3.57
2023-01-02T22:21:24.796Z,3.63
2023-01-02T22:24:28.240Z,3.20
2023-01-02T22:27:31.159Z,3.30
2023-01-02T22:30:35.501Z,3.43
2023-01-02T22:33:38.329Z,3.30
2023-01-02T22:36:40.913Z,3.17
2023-01-02T22:39:43.710Z,3.90
2023-01-02T22:43:01.116Z,3.63
2023-01-02T22:46:07.540Z,3.20
2023-01-02T22:49:15.616Z,2.30
2023-01-02T22:52:18.226Z,2.57
2023-01-02T22:55:23.470Z,2.80
2023-01-02T22:58:26.144Z,3.07
2023-01-02T23:01:33.434Z,3.60
2023-01-02T23:04:36.143Z,2.70
2023-01-02T23:07:38.811Z,2.40
2023-01-02T23:10:41.430Z,2.50
2023-01-02T23:13:44.686Z,2.87
2023-01-02T23:17:06.191Z,2.50
2023-01-02T23:20:09.625Z,2.93
2023-01-02T23:23:12.196Z,2.50
2023-01-02T23:26:15.682Z,2.43
2023-01-02T23:29:19.094Z,2.27
2023-01-02T23:32:23.053Z,2.53
2023-01-02T23:35:25.619Z,2.50
2023-01-02T23:38:28.217Z,2.67
2023-01-02T23:41:30.799Z,2.30
2023-01-02T23:44:33.369Z,2.20
2023-01-02T23:47:37.292Z,2.40
2023-01-02T23:50:39.932Z,2.73
2023-01-02T23:53:42.543Z,2.30
2023-01-02T23:56:47.115Z,2.47
2023-01-02T23:59:49.787Z,2.17
